sensor_id;sensor_type;location;lat;lon;timestamp;P1;durP1;ratioP1;P2;durP2;ratioP2
787;SDS011;16074;42.708;23.312;2022-07-29T00:00:23;15.37;;;13.87;;
787;SDS011;16074;42.708;23.312;2022-07-29T00:02:52;16.37;;;14.73;;
787;SDS011;16074;42.708;23.312;2022-07-29T00:05:20;15.27;;;14.00;;
787;SDS011;16074;42.708;23.312;2022-07-29T00:07:48;14.17;;;13.07;;
787;SDS011;16074;42.708;23.312;2022-07-29T00:10:16;14.63;;;13.33;;
787;SDS011;16074;42.708;23.312;2022-07-29T00:12:45;16.20;;;14.90;;
787;SDS011;16074;42.708;23.312;2022-07-29T00:15:15;14.40;;;13.20;;
787;SDS011;16074;42.708;23.312;2022-07-29T00:17:43;15.10;;;13.90;;
787;SDS011;16074;42.708;23.312;2022-07-29T00:20:11;15.03;;;13.93;;
787;SDS011;16074;42.708;23.312;2022-07-29T00:22:39;15.50;;;14.20;;
787;SDS011;16074;42.708;23.312;2022-07-29T00:25:08;17.97;;;16.47;;
787;SDS011;16074;42.708;23.312;2022-07-29T00:27:36;15.80;;;14.30;;
787;SDS011;16074;42.708;23.312;2022-07-29T00:30:06;17.73;;;16.23;;
787;SDS011;16074;42.708;23.312;2022-07-29T00:32:36;18.13;;;16.50;;
787;SDS011;16074;42.708;23.312;2022-07-29T00:35:05;22.33;;;15.97;;
787;SDS011;16074;42.708;23.312;2022-07-29T00:37:51;17.57;;;16.07;;
787;SDS011;16074;42.708;23.312;2022-07-29T00:40:20;17.83;;;16.33;;
787;SDS011;16074;42.708;23.312;2022-07-29T00:42:50;17.60;;;16.10;;
787;SDS011;16074;42.708;23.312;2022-07-29T00:45:19;18.40;;;16.80;;
787;SDS011;16074;42.708;23.312;2022-07-29T00:47:50;20.07;;;18.37;;
787;SDS011;16074;42.708;23.312;2022-07-29T00:50:18;19.20;;;17.40;;
787;SDS011;16074;42.708;23.312;2022-07-29T00:52:46;19.80;;;18.13;;
787;SDS011;16074;42.708;23.312;2022-07-29T00:55:15;20.17;;;18.37;;
787;SDS011;16074;42.708;23.312;2022-07-29T00:57:44;19.43;;;17.73;;
787;SDS011;16074;42.708;23.312;2022-07-29T01:00:14;18.73;;;17.13;;
787;SDS011;16074;42.708;23.312;2022-07-29T01:02:45;21.93;;;19.87;;
787;SDS011;16074;42.708;23.312;2022-07-29T01:05:16;20.23;;;18.30;;
787;SDS011;16074;42.708;23.312;2022-07-29T01:07:47;19.10;;;17.47;;
787;SDS011;16074;42.708;23.312;2022-07-29T01:10:19;20.87;;;18.90;;
787;SDS011;16074;42.708;23.312;2022-07-29T01:12:50;21.30;;;19.23;;
787;SDS011;16074;42.708;23.312;2022-07-29T01:15:20;21.27;;;19.30;;
787;SDS011;16074;42.708;23.312;2022-07-29T01:17:51;19.53;;;17.73;;
787;SDS011;16074;42.708;23.312;2022-07-29T01:20:34;20.30;;;18.50;;
787;SDS011;16074;42.708;23.312;2022-07-29T01:23:24;20.67;;;18.60;;
787;SDS011;16074;42.708;23.312;2022-07-29T01:26:13;19.07;;;17.37;;
787;SDS011;16074;42.708;23.312;2022-07-29T01:29:01;20.10;;;18.30;;
787;SDS011;16074;42.708;23.312;2022-07-29T01:31:35;20.20;;;18.40;;
787;SDS011;16074;42.708;23.312;2022-07-29T01:34:27;19.87;;;18.00;;
787;SDS011;16074;42.708;23.312;2022-07-29T01:37:03;20.83;;;18.83;;
787;SDS011;16074;42.708;23.312;2022-07-29T01:39:36;20.50;;;18.70;;
787;SDS011;16074;42.708;23.312;2022-07-29T01:42:08;18.40;;;16.80;;
787;SDS011;16074;42.708;23.312;2022-07-29T01:44:46;20.50;;;18.60;;
787;SDS011;16074;42.708;23.312;2022-07-29T01:47:23;20.63;;;18.70;;
787;SDS011;16074;42.708;23.312;2022-07-29T01:49:54;20.57;;;18.70;;
787;SDS011;16074;42.708;23.312;2022-07-29T01:52:27;19.97;;;18.10;;
787;SDS011;16074;42.708;23.312;2022-07-29T01:55:02;21.47;;;19.60;;
787;SDS011;16074;42.708;23.312;2022-07-29T01:57:35;21.53;;;19.43;;
787;SDS011;16074;42.708;23.312;2022-07-29T02:00:09;20.63;;;18.90;;
787;SDS011;16074;42.708;23.312;2022-07-29T02:02:39;20.83;;;18.90;;
787;SDS011;16074;42.708;23.312;2022-07-29T02:05:10;21.27;;;19.47;;
787;SDS011;16074;42.708;23.312;2022-07-29T02:07:40;21.33;;;19.47;;
787;SDS011;16074;42.708;23.312;2022-07-29T02:10:10;21.67;;;19.53;;
787;SDS011;16074;42.708;23.312;2022-07-29T02:12:40;20.30;;;18.47;;
787;SDS011;16074;42.708;23.312;2022-07-29T02:15:18;21.40;;;19.50;;
787;SDS011;16074;42.708;23.312;2022-07-29T02:17:49;20.37;;;18.57;;
787;SDS011;16074;42.708;23.312;2022-07-29T02:20:22;20.53;;;18.63;;
787;SDS011;16074;42.708;23.312;2022-07-29T02:22:53;22.10;;;20.00;;
787;SDS011;16074;42.708;23.312;2022-07-29T02:25:23;21.17;;;19.30;;
787;SDS011;16074;42.708;23.312;2022-07-29T02:28:02;20.73;;;18.67;;
787;SDS011;16074;42.708;23.312;2022-07-29T02:30:34;23.13;;;21.17;;
787;SDS011;16074;42.708;23.312;2022-07-29T02:33:06;20.47;;;18.37;;
787;SDS011;16074;42.708;23.312;2022-07-29T02:35:36;20.53;;;18.63;;
787;SDS011;16074;42.708;23.312;2022-07-29T02:38:06;21.20;;;19.20;;
787;SDS011;16074;42.708;23.312;2022-07-29T02:40:54;23.63;;;21.40;;
787;SDS011;16074;42.708;23.312;2022-07-29T02:43:24;22.27;;;20.27;;
787;SDS011;16074;42.708;23.312;2022-07-29T02:45:54;21.70;;;19.80;;
787;SDS011;16074;42.708;23.312;2022-07-29T02:48:27;22.43;;;20.57;;
787;SDS011;16074;42.708;23.312;2022-07-29T02:51:04;21.57;;;19.57;;
787;SDS011;16074;42.708;23.312;2022-07-29T02:53:38;22.27;;;20.10;;
787;SDS011;16074;42.708;23.312;2022-07-29T02:56:10;23.80;;;21.63;;
787;SDS011;16074;42.708;23.312;2022-07-29T02:58:42;26.60;;;24.30;;
787;SDS011;16074;42.708;23.312;2022-07-29T03:01:16;25.00;;;22.63;;
787;SDS011;16074;42.708;23.312;2022-07-29T03:03:48;26.10;;;23.80;;
787;SDS011;16074;42.708;23.312;2022-07-29T03:06:19;26.43;;;24.00;;
787;SDS011;16074;42.708;23.312;2022-07-29T03:09:03;25.97;;;23.63;;
787;SDS011;16074;42.708;23.312;2022-07-29T03:11:39;26.13;;;23.73;;
787;SDS011;16074;42.708;23.312;2022-07-29T03:14:16;25.23;;;22.57;;
787;SDS011;16074;42.708;23.312;2022-07-29T03:16:48;24.83;;;22.63;;
787;SDS011;16074;42.708;23.312;2022-07-29T03:19:18;24.07;;;21.67;;
787;SDS011;16074;42.708;23.312;2022-07-29T03:21:48;23.60;;;21.20;;
787;SDS011;16074;42.708;23.312;2022-07-29T03:24:26;23.00;;;21.10;;
787;SDS011;16074;42.708;23.312;2022-07-29T03:26:56;21.50;;;19.40;;
787;SDS011;16074;42.708;23.312;2022-07-29T03:29:24;21.33;;;19.47;;
787;SDS011;16074;42.708;23.312;2022-07-29T03:32:02;20.87;;;18.67;;
787;SDS011;16074;42.708;23.312;2022-07-29T03:34:34;21.83;;;19.63;;
787;SDS011;16074;42.708;23.312;2022-07-29T03:37:04;22.27;;;20.03;;
787;SDS011;16074;42.708;23.312;2022-07-29T03:39:35;21.73;;;19.63;;
787;SDS011;16074;42.708;23.312;2022-07-29T03:42:08;21.17;;;19.10;;
787;SDS011;16074;42.708;23.312;2022-07-29T03:44:40;21.60;;;18.97;;
787;SDS011;16074;42.708;23.312;2022-07-29T03:47:12;23.10;;;20.90;;
787;SDS011;16074;42.708;23.312;2022-07-29T03:49:42;19.20;;;17.50;;
787;SDS011;16074;42.708;23.312;2022-07-29T03:52:12;24.50;;;20.10;;
787;SDS011;16074;42.708;23.312;2022-07-29T03:54:41;21.30;;;19.40;;
787;SDS011;16074;42.708;23.312;2022-07-29T03:57:10;20.27;;;18.47;;
787;SDS011;16074;42.708;23.312;2022-07-29T03:59:38;20.47;;;18.67;;
787;SDS011;16074;42.708;23.312;2022-07-29T04:02:09;21.10;;;19.20;;
787;SDS011;16074;42.708;23.312;2022-07-29T04:04:47;20.67;;;18.77;;
787;SDS011;16074;42.708;23.312;2022-07-29T04:07:15;17.57;;;15.97;;
787;SDS011;16074;42.708;23.312;2022-07-29T04:09:43;18.33;;;16.43;;
787;SDS011;16074;42.708;23.312;2022-07-29T04:12:12;20.60;;;16.60;;
787;SDS011;16074;42.708;23.312;2022-07-29T04:14:40;18.33;;;16.70;;
787;SDS011;16074;42.708;23.312;2022-07-29T04:17:08;19.47;;;17.70;;
787;SDS011;16074;42.708;23.312;2022-07-29T04:19:38;17.90;;;16.40;;
787;SDS011;16074;42.708;23.312;2022-07-29T04:22:06;17.03;;;15.40;;
787;SDS011;16074;42.708;23.312;2022-07-29T04:24:34;16.20;;;14.67;;
787;SDS011;16074;42.708;23.312;2022-07-29T04:27:02;16.43;;;14.87;;
787;SDS011;16074;42.708;23.312;2022-07-29T04:29:31;18.03;;;16.33;;
787;SDS011;16074;42.708;23.312;2022-07-29T04:31:59;17.90;;;16.20;;
787;SDS011;16074;42.708;23.312;2022-07-29T04:34:27;18.60;;;17.00;;
787;SDS011;16074;42.708;23.312;2022-07-29T04:36:57;17.87;;;16.00;;
787;SDS011;16074;42.708;23.312;2022-07-29T04:39:25;17.27;;;15.87;;
787;SDS011;16074;42.708;23.312;2022-07-29T04:41:56;19.30;;;14.63;;
787;SDS011;16074;42.708;23.312;2022-07-29T04:44:24;16.90;;;15.13;;
787;SDS011;16074;42.708;23.312;2022-07-29T04:46:55;18.90;;;17.10;;
787;SDS011;16074;42.708;23.312;2022-07-29T04:49:24;15.10;;;13.80;;
787;SDS011;16074;42.708;23.312;2022-07-29T04:51:53;15.70;;;14.20;;
787;SDS011;16074;42.708;23.312;2022-07-29T04:54:22;16.33;;;14.70;;
787;SDS011;16074;42.708;23.312;2022-07-29T04:56:51;16.83;;;15.13;;
787;SDS011;16074;42.708;23.312;2022-07-29T04:59:20;16.10;;;14.50;;
787;SDS011;16074;42.708;23.312;2022-07-29T05:01:48;15.57;;;14.17;;
787;SDS011;16074;42.708;23.312;2022-07-29T05:04:16;16.30;;;13.80;;
787;SDS011;16074;42.708;23.312;2022-07-29T05:06:46;15.50;;;14.10;;
787;SDS011;16074;42.708;23.312;2022-07-29T05:09:14;14.60;;;13.30;;
787;SDS011;16074;42.708;23.312;2022-07-29T05:11:43;15.43;;;13.97;;
787;SDS011;16074;42.708;23.312;2022-07-29T05:14:12;13.33;;;12.23;;
787;SDS011;16074;42.708;23.312;2022-07-29T05:16:41;13.60;;;12.50;;
787;SDS011;16074;42.708;23.312;2022-07-29T05:19:09;13.80;;;12.50;;
787;SDS011;16074;42.708;23.312;2022-07-29T05:21:40;14.20;;;12.90;;
787;SDS011;16074;42.708;23.312;2022-07-29T05:24:09;14.40;;;12.80;;
787;SDS011;16074;42.708;23.312;2022-07-29T05:26:38;13.57;;;12.37;;
787;SDS011;16074;42.708;23.312;2022-07-29T05:29:08;13.73;;;12.50;;
787;SDS011;16074;42.708;23.312;2022-07-29T05:31:57;13.50;;;12.50;;
787;SDS011;16074;42.708;23.312;2022-07-29T05:34:25;13.10;;;11.93;;
787;SDS011;16074;42.708;23.312;2022-07-29T05:36:54;14.47;;;12.97;;
787;SDS011;16074;42.708;23.312;2022-07-29T05:39:22;12.37;;;11.37;;
787;SDS011;16074;42.708;23.312;2022-07-29T05:42:11;13.60;;;12.40;;
787;SDS011;16074;42.708;23.312;2022-07-29T05:44:40;13.50;;;11.97;;
787;SDS011;16074;42.708;23.312;2022-07-29T05:47:08;13.80;;;12.40;;
787;SDS011;16074;42.708;23.312;2022-07-29T05:49:38;12.83;;;11.63;;
787;SDS011;16074;42.708;23.312;2022-07-29T05:52:06;13.47;;;12.07;;
787;SDS011;16074;42.708;23.312;2022-07-29T05:54:34;14.10;;;12.93;;
787;SDS011;16074;42.708;23.312;2022-07-29T05:57:02;14.07;;;12.87;;
787;SDS011;16074;42.708;23.312;2022-07-29T05:59:31;13.10;;;11.90;;
787;SDS011;16074;42.708;23.312;2022-07-29T06:02:04;12.23;;;11.23;;
787;SDS011;16074;42.708;23.312;2022-07-29T06:04:32;12.13;;;11.20;;
787;SDS011;16074;42.708;23.312;2022-07-29T06:07:01;12.30;;;11.37;;
787;SDS011;16074;42.708;23.312;2022-07-29T06:09:29;12.10;;;11.10;;
787;SDS011;16074;42.708;23.312;2022-07-29T06:12:02;13.50;;;11.33;;
787;SDS011;16074;42.708;23.312;2022-07-29T06:14:30;11.60;;;10.77;;
787;SDS011;16074;42.708;23.312;2022-07-29T06:16:59;11.67;;;10.77;;
787;SDS011;16074;42.708;23.312;2022-07-29T06:19:28;12.53;;;11.37;;
787;SDS011;16074;42.708;23.312;2022-07-29T06:21:56;11.97;;;10.40;;
787;SDS011;16074;42.708;23.312;2022-07-29T06:24:25;12.20;;;11.13;;
787;SDS011;16074;42.708;23.312;2022-07-29T06:26:53;10.67;;;9.77;;
787;SDS011;16074;42.708;23.312;2022-07-29T06:29:22;10.30;;;9.50;;
787;SDS011;16074;42.708;23.312;2022-07-29T06:31:50;11.30;;;10.30;;
787;SDS011;16074;42.708;23.312;2022-07-29T06:34:18;10.27;;;9.33;;
787;SDS011;16074;42.708;23.312;2022-07-29T06:36:49;11.40;;;10.60;;
787;SDS011;16074;42.708;23.312;2022-07-29T06:39:19;10.37;;;9.57;;
787;SDS011;16074;42.708;23.312;2022-07-29T06:41:48;11.87;;;10.77;;
787;SDS011;16074;42.708;23.312;2022-07-29T06:44:17;10.80;;;9.80;;
787;SDS011;16074;42.708;23.312;2022-07-29T06:46:46;10.13;;;9.23;;
787;SDS011;16074;42.708;23.312;2022-07-29T06:49:15;10.43;;;9.53;;
787;SDS011;16074;42.708;23.312;2022-07-29T06:51:44;10.10;;;9.20;;
787;SDS011;16074;42.708;23.312;2022-07-29T06:54:14;10.53;;;9.63;;
787;SDS011;16074;42.708;23.312;2022-07-29T06:56:43;10.83;;;9.93;;
787;SDS011;16074;42.708;23.312;2022-07-29T06:59:11;10.10;;;9.20;;
787;SDS011;16074;42.708;23.312;2022-07-29T07:01:40;9.70;;;9.00;;
787;SDS011;16074;42.708;23.312;2022-07-29T07:04:10;9.53;;;8.83;;
787;SDS011;16074;42.708;23.312;2022-07-29T07:06:40;9.07;;;8.37;;
787;SDS011;16074;42.708;23.312;2022-07-29T07:09:08;8.87;;;8.10;;
787;SDS011;16074;42.708;23.312;2022-07-29T07:11:38;9.73;;;8.80;;
787;SDS011;16074;42.708;23.312;2022-07-29T07:14:06;8.67;;;8.07;;
787;SDS011;16074;42.708;23.312;2022-07-29T07:16:34;7.70;;;7.20;;
787;SDS011;16074;42.708;23.312;2022-07-29T07:19:03;8.07;;;7.47;;
787;SDS011;16074;42.708;23.312;2022-07-29T07:21:32;7.73;;;6.93;;
787;SDS011;16074;42.708;23.312;2022-07-29T07:24:01;9.30;;;7.97;;
787;SDS011;16074;42.708;23.312;2022-07-29T07:26:29;10.23;;;9.53;;
787;SDS011;16074;42.708;23.312;2022-07-29T07:29:00;8.90;;;8.30;;
787;SDS011;16074;42.708;23.312;2022-07-29T07:31:28;9.37;;;8.60;;
787;SDS011;16074;42.708;23.312;2022-07-29T07:33:56;7.57;;;6.97;;
787;SDS011;16074;42.708;23.312;2022-07-29T07:36:25;8.77;;;8.17;;
787;SDS011;16074;42.708;23.312;2022-07-29T07:38:53;8.20;;;7.50;;
787;SDS011;16074;42.708;23.312;2022-07-29T07:41:21;8.40;;;7.70;;
787;SDS011;16074;42.708;23.312;2022-07-29T07:43:50;7.03;;;6.53;;
787;SDS011;16074;42.708;23.312;2022-07-29T07:46:19;7.77;;;7.27;;
787;SDS011;16074;42.708;23.312;2022-07-29T07:48:48;6.87;;;6.47;;
787;SDS011;16074;42.708;23.312;2022-07-29T07:51:16;7.37;;;6.87;;
787;SDS011;16074;42.708;23.312;2022-07-29T07:53:44;8.30;;;7.60;;
787;SDS011;16074;42.708;23.312;2022-07-29T07:56:15;7.93;;;7.33;;
787;SDS011;16074;42.708;23.312;2022-07-29T07:58:44;7.87;;;7.37;;
787;SDS011;16074;42.708;23.312;2022-07-29T08:01:12;8.27;;;7.60;;
787;SDS011;16074;42.708;23.312;2022-07-29T08:03:42;8.10;;;7.50;;
787;SDS011;16074;42.708;23.312;2022-07-29T08:06:10;8.43;;;7.63;;
787;SDS011;16074;42.708;23.312;2022-07-29T08:08:38;7.70;;;7.10;;
787;SDS011;16074;42.708;23.312;2022-07-29T08:11:06;7.13;;;6.73;;
787;SDS011;16074;42.708;23.312;2022-07-29T08:13:35;7.93;;;7.43;;
787;SDS011;16074;42.708;23.312;2022-07-29T08:16:05;8.37;;;7.50;;
787;SDS011;16074;42.708;23.312;2022-07-29T08:18:44;7.37;;;6.90;;
787;SDS011;16074;42.708;23.312;2022-07-29T08:21:13;6.77;;;6.10;;
787;SDS011;16074;42.708;23.312;2022-07-29T08:23:42;7.53;;;7.03;;
787;SDS011;16074;42.708;23.312;2022-07-29T08:26:26;6.57;;;6.17;;
787;SDS011;16074;42.708;23.312;2022-07-29T08:28:54;6.67;;;6.13;;
787;SDS011;16074;42.708;23.312;2022-07-29T08:31:22;6.87;;;6.37;;
787;SDS011;16074;42.708;23.312;2022-07-29T08:33:52;6.43;;;6.10;;
787;SDS011;16074;42.708;23.312;2022-07-29T08:36:22;7.13;;;6.60;;
787;SDS011;16074;42.708;23.312;2022-07-29T08:38:51;7.07;;;6.57;;
787;SDS011;16074;42.708;23.312;2022-07-29T08:41:19;6.90;;;6.50;;
787;SDS011;16074;42.708;23.312;2022-07-29T08:43:48;7.13;;;6.77;;
787;SDS011;16074;42.708;23.312;2022-07-29T08:46:17;5.80;;;5.50;;
787;SDS011;16074;42.708;23.312;2022-07-29T08:48:46;6.33;;;5.83;;
787;SDS011;16074;42.708;23.312;2022-07-29T08:51:17;6.90;;;6.50;;
787;SDS011;16074;42.708;23.312;2022-07-29T08:53:47;6.10;;;5.77;;
787;SDS011;16074;42.708;23.312;2022-07-29T08:56:16;6.60;;;6.20;;
787;SDS011;16074;42.708;23.312;2022-07-29T08:58:46;7.07;;;6.57;;
787;SDS011;16074;42.708;23.312;2022-07-29T09:01:21;6.50;;;5.90;;
787;SDS011;16074;42.708;23.312;2022-07-29T09:04:03;5.87;;;5.47;;
787;SDS011;16074;42.708;23.312;2022-07-29T09:06:34;6.17;;;5.67;;
787;SDS011;16074;42.708;23.312;2022-07-29T09:09:07;6.27;;;5.80;;
787;SDS011;16074;42.708;23.312;2022-07-29T09:11:35;6.63;;;5.50;;
787;SDS011;16074;42.708;23.312;2022-07-29T09:14:04;6.57;;;6.07;;
787;SDS011;16074;42.708;23.312;2022-07-29T09:16:45;6.60;;;6.20;;
787;SDS011;16074;42.708;23.312;2022-07-29T09:19:23;6.50;;;6.10;;
787;SDS011;16074;42.708;23.312;2022-07-29T09:21:55;6.33;;;5.87;;
787;SDS011;16074;42.708;23.312;2022-07-29T09:24:39;6.80;;;6.23;;
787;SDS011;16074;42.708;23.312;2022-07-29T09:27:10;5.60;;;5.40;;
787;SDS011;16074;42.708;23.312;2022-07-29T09:29:45;7.67;;;7.00;;
787;SDS011;16074;42.708;23.312;2022-07-29T09:32:13;7.50;;;7.00;;
787;SDS011;16074;42.708;23.312;2022-07-29T09:34:42;7.53;;;6.90;;
787;SDS011;16074;42.708;23.312;2022-07-29T09:37:11;6.83;;;6.43;;
787;SDS011;16074;42.708;23.312;2022-07-29T09:39:53;6.13;;;5.83;;
787;SDS011;16074;42.708;23.312;2022-07-29T09:42:27;8.27;;;7.43;;
787;SDS011;16074;42.708;23.312;2022-07-29T09:44:56;6.13;;;5.83;;
787;SDS011;16074;42.708;23.312;2022-07-29T09:47:27;6.73;;;6.33;;
787;SDS011;16074;42.708;23.312;2022-07-29T09:50:09;7.17;;;6.67;;
787;SDS011;16074;42.708;23.312;2022-07-29T09:52:45;8.03;;;7.30;;
787;SDS011;16074;42.708;23.312;2022-07-29T09:55:14;7.03;;;6.50;;
787;SDS011;16074;42.708;23.312;2022-07-29T09:57:45;7.03;;;6.63;;
787;SDS011;16074;42.708;23.312;2022-07-29T10:00:15;7.00;;;6.50;;
787;SDS011;16074;42.708;23.312;2022-07-29T10:02:46;7.53;;;6.80;;
787;SDS011;16074;42.708;23.312;2022-07-29T10:05:19;6.70;;;6.40;;
787;SDS011;16074;42.708;23.312;2022-07-29T10:07:50;6.47;;;5.97;;
787;SDS011;16074;42.708;23.312;2022-07-29T10:10:23;6.20;;;5.80;;
787;SDS011;16074;42.708;23.312;2022-07-29T10:12:54;6.70;;;6.30;;
787;SDS011;16074;42.708;23.312;2022-07-29T10:15:28;6.67;;;6.27;;
787;SDS011;16074;42.708;23.312;2022-07-29T10:17:59;7.00;;;6.40;;
787;SDS011;16074;42.708;23.312;2022-07-29T10:20:27;5.90;;;5.43;;
787;SDS011;16074;42.708;23.312;2022-07-29T10:22:57;6.37;;;5.87;;
787;SDS011;16074;42.708;23.312;2022-07-29T10:25:26;5.90;;;5.60;;
787;SDS011;16074;42.708;23.312;2022-07-29T10:27:54;6.90;;;6.50;;
787;SDS011;16074;42.708;23.312;2022-07-29T10:30:23;5.83;;;5.53;;
787;SDS011;16074;42.708;23.312;2022-07-29T10:33:08;6.33;;;5.83;;
787;SDS011;16074;42.708;23.312;2022-07-29T10:35:48;6.30;;;5.70;;
787;SDS011;16074;42.708;23.312;2022-07-29T10:41:33;7.40;;;6.43;;
787;SDS011;16074;42.708;23.312;2022-07-29T10:44:13;6.00;;;5.57;;
787;SDS011;16074;42.708;23.312;2022-07-29T10:46:48;6.20;;;5.80;;
787;SDS011;16074;42.708;23.312;2022-07-29T10:49:19;6.30;;;6.00;;
787;SDS011;16074;42.708;23.312;2022-07-29T10:51:52;5.80;;;5.47;;
787;SDS011;16074;42.708;23.312;2022-07-29T10:54:43;5.90;;;5.40;;
787;SDS011;16074;42.708;23.312;2022-07-29T10:57:23;6.10;;;5.70;;
787;SDS011;16074;42.708;23.312;2022-07-29T11:00:26;6.37;;;6.07;;
787;SDS011;16074;42.708;23.312;2022-07-29T11:02:56;7.50;;;6.97;;
787;SDS011;16074;42.708;23.312;2022-07-29T11:05:25;6.30;;;5.90;;
787;SDS011;16074;42.708;23.312;2022-07-29T11:08:24;7.10;;;6.60;;
787;SDS011;16074;42.708;23.312;2022-07-29T11:14:04;6.80;;;6.30;;
787;SDS011;16074;42.708;23.312;2022-07-29T11:19:33;6.17;;;5.77;;
787;SDS011;16074;42.708;23.312;2022-07-29T11:22:07;6.83;;;6.33;;
787;SDS011;16074;42.708;23.312;2022-07-29T11:24:36;6.37;;;5.77;;
787;SDS011;16074;42.708;23.312;2022-07-29T11:27:16;7.30;;;6.87;;
787;SDS011;16074;42.708;23.312;2022-07-29T11:29:57;6.77;;;6.37;;
787;SDS011;16074;42.708;23.312;2022-07-29T11:32:35;6.07;;;5.67;;
787;SDS011;16074;42.708;23.312;2022-07-29T11:35:11;5.93;;;5.53;;
787;SDS011;16074;42.708;23.312;2022-07-29T11:37:45;6.90;;;6.50;;
787;SDS011;16074;42.708;23.312;2022-07-29T11:40:23;6.87;;;6.37;;
787;SDS011;16074;42.708;23.312;2022-07-29T11:42:51;6.37;;;6.07;;
787;SDS011;16074;42.708;23.312;2022-07-29T11:45:25;7.20;;;6.77;;
787;SDS011;16074;42.708;23.312;2022-07-29T11:48:14;7.43;;;6.73;;
787;SDS011;16074;42.708;23.312;2022-07-29T11:50:55;6.60;;;6.30;;
787;SDS011;16074;42.708;23.312;2022-07-29T11:53:24;7.60;;;7.30;;
787;SDS011;16074;42.708;23.312;2022-07-29T11:55:57;6.63;;;6.13;;
787;SDS011;16074;42.708;23.312;2022-07-29T11:58:28;6.77;;;6.47;;
787;SDS011;16074;42.708;23.312;2022-07-29T12:00:58;8.07;;;7.67;;
787;SDS011;16074;42.708;23.312;2022-07-29T12:03:30;7.60;;;7.20;;
787;SDS011;16074;42.708;23.312;2022-07-29T12:06:19;8.43;;;7.90;;
787;SDS011;16074;42.708;23.312;2022-07-29T12:08:47;7.40;;;6.80;;
787;SDS011;16074;42.708;23.312;2022-07-29T12:11:16;7.90;;;7.30;;
787;SDS011;16074;42.708;23.312;2022-07-29T12:13:47;7.60;;;7.10;;
787;SDS011;16074;42.708;23.312;2022-07-29T12:16:18;7.20;;;6.80;;
787;SDS011;16074;42.708;23.312;2022-07-29T12:18:57;7.27;;;6.97;;
787;SDS011;16074;42.708;23.312;2022-07-29T12:21:28;7.37;;;6.87;;
787;SDS011;16074;42.708;23.312;2022-07-29T12:23:56;7.93;;;7.43;;
787;SDS011;16074;42.708;23.312;2022-07-29T12:26:34;7.37;;;6.97;;
787;SDS011;16074;42.708;23.312;2022-07-29T12:29:05;7.77;;;7.13;;
787;SDS011;16074;42.708;23.312;2022-07-29T12:31:50;6.90;;;6.60;;
787;SDS011;16074;42.708;23.312;2022-07-29T12:34:23;7.50;;;7.10;;
787;SDS011;16074;42.708;23.312;2022-07-29T12:36:54;8.00;;;7.30;;
787;SDS011;16074;42.708;23.312;2022-07-29T12:39:23;7.43;;;6.93;;
787;SDS011;16074;42.708;23.312;2022-07-29T12:41:52;7.67;;;7.27;;
787;SDS011;16074;42.708;23.312;2022-07-29T12:44:43;7.90;;;7.50;;
787;SDS011;16074;42.708;23.312;2022-07-29T12:47:13;8.10;;;7.60;;
787;SDS011;16074;42.708;23.312;2022-07-29T12:49:42;8.10;;;7.60;;
787;SDS011;16074;42.708;23.312;2022-07-29T12:52:29;8.10;;;7.70;;
787;SDS011;16074;42.708;23.312;2022-07-29T12:54:59;8.83;;;8.30;;
787;SDS011;16074;42.708;23.312;2022-07-29T12:57:29;7.93;;;7.53;;
787;SDS011;16074;42.708;23.312;2022-07-29T13:00:03;7.93;;;7.23;;
787;SDS011;16074;42.708;23.312;2022-07-29T13:02:35;9.50;;;8.93;;
787;SDS011;16074;42.708;23.312;2022-07-29T13:05:05;7.90;;;7.50;;
787;SDS011;16074;42.708;23.312;2022-07-29T13:07:35;8.53;;;8.00;;
787;SDS011;16074;42.708;23.312;2022-07-29T13:10:22;9.50;;;8.90;;
787;SDS011;16074;42.708;23.312;2022-07-29T13:13:04;8.03;;;7.63;;
787;SDS011;16074;42.708;23.312;2022-07-29T13:15:35;7.97;;;7.57;;
787;SDS011;16074;42.708;23.312;2022-07-29T13:18:05;8.70;;;8.20;;
787;SDS011;16074;42.708;23.312;2022-07-29T13:20:56;9.40;;;8.60;;
787;SDS011;16074;42.708;23.312;2022-07-29T13:23:37;8.63;;;8.10;;
787;SDS011;16074;42.708;23.312;2022-07-29T13:26:05;8.80;;;8.30;;
787;SDS011;16074;42.708;23.312;2022-07-29T13:28:34;9.00;;;8.23;;
787;SDS011;16074;42.708;23.312;2022-07-29T13:31:02;7.83;;;7.20;;
787;SDS011;16074;42.708;23.312;2022-07-29T13:33:32;8.50;;;8.00;;
787;SDS011;16074;42.708;23.312;2022-07-29T13:36:00;8.70;;;8.17;;
787;SDS011;16074;42.708;23.312;2022-07-29T13:38:29;7.87;;;7.33;;
787;SDS011;16074;42.708;23.312;2022-07-29T13:40:57;8.20;;;7.80;;
787;SDS011;16074;42.708;23.312;2022-07-29T13:43:25;8.77;;;8.27;;
787;SDS011;16074;42.708;23.312;2022-07-29T13:45:53;9.57;;;9.07;;
787;SDS011;16074;42.708;23.312;2022-07-29T13:48:22;8.43;;;7.67;;
787;SDS011;16074;42.708;23.312;2022-07-29T13:50:52;9.33;;;8.63;;
787;SDS011;16074;42.708;23.312;2022-07-29T13:53:20;9.47;;;8.97;;
787;SDS011;16074;42.708;23.312;2022-07-29T13:55:53;9.13;;;8.57;;
787;SDS011;16074;42.708;23.312;2022-07-29T13:58:21;9.80;;;9.20;;
787;SDS011;16074;42.708;23.312;2022-07-29T14:00:49;8.70;;;8.00;;
787;SDS011;16074;42.708;23.312;2022-07-29T14:03:18;8.33;;;7.80;;
787;SDS011;16074;42.708;23.312;2022-07-29T14:05:46;8.70;;;8.27;;
787;SDS011;16074;42.708;23.312;2022-07-29T14:08:16;8.50;;;8.00;;
787;SDS011;16074;42.708;23.312;2022-07-29T14:10:44;9.43;;;8.90;;
787;SDS011;16074;42.708;23.312;2022-07-29T14:13:12;7.60;;;7.20;;
787;SDS011;16074;42.708;23.312;2022-07-29T14:15:51;7.90;;;7.20;;
787;SDS011;16074;42.708;23.312;2022-07-29T14:18:20;8.00;;;7.60;;
787;SDS011;16074;42.708;23.312;2022-07-29T14:20:48;8.43;;;7.93;;
787;SDS011;16074;42.708;23.312;2022-07-29T14:23:18;9.20;;;8.67;;
787;SDS011;16074;42.708;23.312;2022-07-29T14:25:47;8.20;;;7.80;;
787;SDS011;16074;42.708;23.312;2022-07-29T14:28:15;8.13;;;7.63;;
787;SDS011;16074;42.708;23.312;2022-07-29T14:30:43;8.97;;;8.47;;
787;SDS011;16074;42.708;23.312;2022-07-29T14:33:12;8.83;;;8.33;;
787;SDS011;16074;42.708;23.312;2022-07-29T14:35:40;8.70;;;8.20;;
787;SDS011;16074;42.708;23.312;2022-07-29T14:38:08;9.30;;;8.80;;
787;SDS011;16074;42.708;23.312;2022-07-29T14:40:38;8.13;;;7.53;;
787;SDS011;16074;42.708;23.312;2022-07-29T14:43:06;8.40;;;7.80;;
787;SDS011;16074;42.708;23.312;2022-07-29T14:45:34;9.00;;;8.50;;
787;SDS011;16074;42.708;23.312;2022-07-29T14:48:03;8.60;;;7.73;;
787;SDS011;16074;42.708;23.312;2022-07-29T14:50:31;8.70;;;8.13;;
787;SDS011;16074;42.708;23.312;2022-07-29T14:52:59;8.17;;;7.57;;
787;SDS011;16074;42.708;23.312;2022-07-29T14:55:28;7.90;;;7.40;;
787;SDS011;16074;42.708;23.312;2022-07-29T14:57:58;9.03;;;8.33;;
787;SDS011;16074;42.708;23.312;2022-07-29T15:00:36;8.70;;;8.10;;
787;SDS011;16074;42.708;23.312;2022-07-29T15:03:04;8.50;;;7.90;;
787;SDS011;16074;42.708;23.312;2022-07-29T15:05:36;8.67;;;8.10;;
787;SDS011;16074;42.708;23.312;2022-07-29T15:08:05;9.23;;;8.70;;
787;SDS011;16074;42.708;23.312;2022-07-29T15:10:34;9.33;;;8.77;;
787;SDS011;16074;42.708;23.312;2022-07-29T15:13:04;9.80;;;9.00;;
787;SDS011;16074;42.708;23.312;2022-07-29T15:15:32;8.47;;;8.03;;
787;SDS011;16074;42.708;23.312;2022-07-29T15:18:00;8.63;;;8.03;;
787;SDS011;16074;42.708;23.312;2022-07-29T15:20:29;10.10;;;9.50;;
787;SDS011;16074;42.708;23.312;2022-07-29T15:22:57;8.07;;;7.63;;